Time;durP1;ratioP1;P1;durP2;ratioP2;P2;SDS_P1;SDS_P2;PMS_P1;PMS_P2;Temp;Humidity;BMP_temperature;BMP_pressure;BME280_temperature;BME280_humidity;BME280_pressure;Samples;Min_cycle;Max_cycle;Signal;HPM_P1;HPM_P2
2021/09/26 00:01:34;;;;;;;;;15.25;15.00;;;;;18.97;78.51;101110.47;4992329;28;45334;-71
2021/09/26 00:03:59;;;;;;;;;15.75;15.75;;;;;18.95;78.00;101112.38;4979642;28;47724;-71
2021/09/26 00:06:25;;;;;;;;;18.75;17.25;;;;;18.93;77.94;101109.81;4988141;28;45392;-71
2021/09/26 00:08:50;;;;;;;;;21.25;18.25;;;;;18.93;77.90;101119.63;4982500;28;45567;-71
2021/09/26 00:11:16;;;;;;;;;17.00;13.25;;;;;18.92;78.35;101120.59;4993176;28;53288;-72
2021/09/26 00:13:42;;;;;;;;;16.25;16.00;;;;;18.89;78.50;101120.78;4991270;28;45491;-71
2021/09/26 00:16:09;;;;;;;;;15.25;14.00;;;;;18.88;78.25;101130.59;4979562;28;45543;-71
2021/09/26 00:18:35;;;;;;;;;12.25;12.25;;;;;18.87;78.01;101133.38;4990849;28;47436;-71
2021/09/26 00:21:01;;;;;;;;;16.00;14.00;;;;;18.86;78.65;101129.88;4983340;28;45683;-71
2021/09/26 00:23:27;;;;;;;;;16.50;15.75;;;;;18.83;78.43;101124.75;4983097;28;45632;-71
2021/09/26 00:25:54;;;;;;;;;16.75;15.50;;;;;18.82;78.54;101128.38;4984754;28;45451;-71
2021/09/26 00:28:20;;;;;;;;;23.00;16.00;;;;;18.81;78.44;101126.69;4991553;28;45609;-71
2021/09/26 00:30:46;;;;;;;;;17.50;15.25;;;;;18.78;77.99;101130.41;4991925;28;45764;-71
2021/09/26 00:33:12;;;;;;;;;16.75;15.25;;;;;18.73;78.35;101140.53;4987986;28;45495;-71
2021/09/26 00:35:38;;;;;;;;;18.50;16.25;;;;;18.71;78.14;101147.78;4989259;28;45379;-71
2021/09/26 00:38:03;;;;;;;;;15.25;13.75;;;;;18.69;78.43;101151.53;4988874;28;46669;-71
2021/09/26 00:40:29;;;;;;;;;17.50;16.50;;;;;18.64;78.56;101151.81;4993476;28;46076;-71
2021/09/26 00:42:54;;;;;;;;;15.00;15.00;;;;;18.55;78.87;101132.97;4985766;28;45489;-71
2021/09/26 00:45:20;;;;;;;;;15.25;14.75;;;;;18.62;78.93;101159.03;4981347;28;45342;-71
2021/09/26 00:47:46;;;;;;;;;12.00;12.00;;;;;18.60;78.60;101149.47;4982154;28;45702;-71
2021/09/26 00:50:12;;;;;;;;;17.00;14.00;;;;;18.58;78.55;101146.03;4983095;28;45571;-71
2021/09/26 00:52:41;;;;;;;;;16.75;13.50;;;;;18.58;78.34;101138.91;4991716;28;45808;-71
2021/09/26 00:55:07;;;;;;;;;13.75;13.25;;;;;18.56;78.51;101153.31;4978367;28;45737;-71
2021/09/26 00:57:34;;;;;;;;;19.00;14.00;;;;;18.54;78.72;101145.44;4990053;28;45520;-71
2021/09/26 01:00:00;;;;;;;;;13.00;11.00;;;;;18.55;79.07;101157.78;4986462;28;45533;-71
2021/09/26 01:02:25;;;;;;;;;13.50;13.25;;;;;18.53;78.79;101159.66;4986447;28;45877;-71
2021/09/26 01:04:51;;;;;;;;;20.25;14.25;;;;;18.54;79.29;101169.38;4991541;28;45728;-71
2021/09/26 01:07:30;;;;;;;;;22.00;14.75;;;;;18.51;79.17;101166.91;4992753;28;45424;-71
2021/09/26 01:10:05;;;;;;;;;20.25;15.50;;;;;18.49;78.83;101167.03;4984104;28;45420;-71
2021/09/26 01:12:38;;;;;;;;;15.50;14.50;;;;;18.47;78.79;101165.44;4989950;28;45612;-71
2021/09/26 01:15:23;;;;;;;;;16.50;15.25;;;;;18.47;79.05;101165.44;4982436;28;45578;-71
2021/09/26 01:18:03;;;;;;;;;15.00;14.50;;;;;18.45;78.90;101162.03;4986069;28;45561;-71
2021/09/26 01:20:47;;;;;;;;;16.50;15.00;;;;;18.45;78.69;101162.03;4989226;28;45613;-71
2021/09/26 01:23:21;;;;;;;;;16.00;13.00;;;;;18.43;78.74;101162.16;4989363;28;45344;-71
2021/09/26 01:26:13;;;;;;;;;16.50;15.50;;;;;18.38;78.85;101163.41;4991940;28;45598;-71
2021/09/26 01:29:15;;;;;;;;;17.25;13.00;;;;;18.36;79.10;101168.81;4978519;28;47134;-71
2021/09/26 01:31:45;;;;;;;;;17.00;15.75;;;;;18.39;78.92;101184.59;4978638;28;45407;-71
2021/09/26 01:34:19;;;;;;;;;15.75;15.25;;;;;18.34;78.88;101173.41;4992140;28;45485;-71
2021/09/26 01:36:52;;;;;;;;;16.25;15.25;;;;;18.36;79.26;101182.13;4984247;28;45483;-71
2021/09/26 01:39:29;;;;;;;;;13.00;13.00;;;;;18.36;79.07;101173.31;4992796;28;48288;-71
2021/09/26 01:42:17;;;;;;;;;16.50;13.25;;;;;18.32;78.71;101177.13;4992184;28;45361;-71
2021/09/26 01:44:54;;;;;;;;;17.75;14.25;;;;;18.29;79.33;101174.69;4992189;28;45426;-71
2021/09/26 01:47:25;;;;;;;;;13.00;12.25;;;;;18.30;78.72;101177.22;4989702;28;45422;-71
2021/09/26 01:49:54;;;;;;;;;17.00;13.75;;;;;18.28;78.85;101167.66;5000291;28;46580;-71
2021/09/26 01:52:23;;;;;;;;;15.50;12.75;;;;;18.30;78.88;101174.56;4994639;28;45963;-71
2021/09/26 01:54:49;;;;;;;;;14.75;13.25;;;;;18.30;79.17;101171.06;4993619;28;45977;-71
2021/09/26 01:57:20;;;;;;;;;17.75;15.50;;;;;18.28;79.18;101165.00;4984827;28;45460;-71
2021/09/26 01:59:54;;;;;;;;;19.00;15.25;;;;;18.29;78.90;101174.69;4988838;28;45491;-71
2021/09/26 02:02:20;;;;;;;;;18.00;15.25;;;;;18.30;78.74;101176.38;4989923;28;45589;-71
2021/09/26 02:04:49;;;;;;;;;17.75;13.25;;;;;18.28;78.71;101170.34;4993822;28;45495;-71
2021/09/26 02:07:15;;;;;;;;;16.25;13.75;;;;;18.26;79.26;101173.06;4985131;28;45320;-71
2021/09/26 02:09:44;;;;;;;;;13.75;13.75;;;;;18.20;79.46;101179.66;4993088;28;45566;-71
2021/09/26 02:12:12;;;;;;;;;16.25;15.25;;;;;18.19;79.19;101182.44;4986841;28;45827;-71
2021/09/26 02:14:39;;;;;;;;;14.50;14.00;;;;;18.15;79.28;101179.13;4984866;28;45502;-71
2021/09/26 02:17:06;;;;;;;;;15.00;13.50;;;;;18.06;78.97;101162.94;4984651;28;45457;-71
2021/09/26 02:19:34;;;;;;;;;19.50;16.75;;;;;18.11;79.27;101172.31;4994224;28;45429;-71
2021/09/26 02:22:00;;;;;;;;;20.50;18.25;;;;;18.06;79.26;101165.59;4978957;28;45932;-71
2021/09/26 02:24:26;;;;;;;;;17.25;15.25;;;;;18.02;79.70;101169.44;4978464;28;45456;-71
2021/09/26 02:26:52;;;;;;;;;17.00;15.50;;;;;17.97;79.63;101167.94;4983266;28;45511;-71
2021/09/26 02:29:17;;;;;;;;;20.50;16.25;;;;;17.99;79.51;101176.66;4990377;28;45583;-71
2021/09/26 02:31:43;;;;;;;;;18.50;16.00;;;;;17.94;79.56;101167.28;4992479;28;47628;-71
2021/09/26 02:34:08;;;;;;;;;17.50;16.25;;;;;17.94;79.83;101175.25;4990306;28;45438;-71
2021/09/26 02:36:33;;;;;;;;;18.50;16.00;;;;;17.95;79.87;101166.31;4991431;28;45534;-71
2021/09/26 02:39:01;;;;;;;;;21.25;17.00;;;;;17.94;79.76;101169.94;4986870;28;46479;-71
2021/09/26 02:41:39;;;;;;;;;20.50;17.00;;;;;17.96;79.82;101163.56;4987168;28;45851;-71
2021/09/26 02:44:14;;;;;;;;;20.00;16.25;;;;;17.94;80.19;101157.47;4984536;28;45507;-71
2021/09/26 02:46:44;;;;;;;;;20.00;17.50;;;;;18.03;79.87;101152.53;4990930;28;45551;-71
2021/09/26 02:49:10;;;;;;;;;18.50;16.50;;;;;18.02;79.69;101143.69;4991966;28;45509;-71
2021/09/26 02:51:36;;;;;;;;;20.00;16.25;;;;;18.03;79.56;101145.38;4989339;28;45545;-71
2021/09/26 02:54:02;;;;;;;;;18.25;14.50;;;;;18.09;79.51;101139.66;4991124;28;45371;-71
2021/09/26 02:56:28;;;;;;;;;21.50;18.75;;;;;18.04;79.62;101124.97;4990908;28;45424;-71
2021/09/26 02:58:54;;;;;;;;;20.50;17.50;;;;;18.11;80.01;101132.41;4987908;28;47530;-71
2021/09/26 03:01:21;;;;;;;;;17.50;15.75;;;;;18.11;79.80;101126.22;4980495;28;45379;-71
2021/09/26 03:03:46;;;;;;;;;17.75;17.00;;;;;18.13;79.98;101132.31;5001508;28;45778;-71
2021/09/26 03:06:11;;;;;;;;;19.75;17.25;;;;;18.14;79.80;101129.53;4987023;28;45511;-71
2021/09/26 03:08:37;;;;;;;;;22.00;18.75;;;;;18.14;79.94;101124.22;4981607;28;45332;-71
2021/09/26 03:11:02;;;;;;;;;17.00;17.00;;;;;18.15;79.73;101114.44;4984228;28;45431;-71
2021/09/26 03:13:29;;;;;;;;;17.75;16.25;;;;;18.14;79.74;101107.41;4991827;28;45345;-71
2021/09/26 03:15:54;;;;;;;;;16.75;16.75;;;;;18.16;79.66;101106.34;4993969;28;45353;-71
2021/09/26 03:18:20;;;;;;;;;22.00;20.75;;;;;18.15;79.44;101117.94;4979498;28;46866;-71
2021/09/26 03:20:46;;;;;;;;;19.00;17.50;;;;;18.12;79.65;101115.50;4988012;28;45531;-71
2021/09/26 03:23:12;;;;;;;;;21.50;18.00;;;;;18.15;79.56;101117.09;4983289;28;45332;-71
2021/09/26 03:25:37;;;;;;;;;26.50;20.50;;;;;18.13;79.74;101121.69;4991792;28;45461;-71
2021/09/26 03:28:03;;;;;;;;;21.25;19.75;;;;;18.11;79.48;101119.09;4993086;28;46462;-71
2021/09/26 03:30:28;;;;;;;;;24.00;19.25;;;;;18.11;79.62;101118.25;4986280;28;45494;-71
2021/09/26 03:32:53;;;;;;;;;24.25;20.00;;;;;18.05;79.95;101114.22;4989987;28;45566;-71
2021/09/26 03:35:20;;;;;;;;;21.25;19.75;;;;;18.05;79.95;101111.53;4989100;28;45612;-71
2021/09/26 03:37:45;;;;;;;;;24.50;20.75;;;;;18.03;79.70;101113.47;4990797;28;45531;-71
2021/09/26 03:40:11;;;;;;;;;27.00;26.00;;;;;18.04;80.23;101123.16;4993556;28;45616;-71
2021/09/26 03:42:38;;;;;;;;;26.25;24.00;;;;;18.08;80.20;101124.66;4988092;28;45511;-71
2021/09/26 03:45:05;;;;;;;;;32.00;28.00;;;;;18.09;79.78;101129.00;4986410;28;46105;-71
2021/09/26 03:47:31;;;;;;;;;28.00;25.50;;;;;18.10;80.30;101125.38;4988284;28;46580;-71
2021/09/26 03:49:56;;;;;;;;;27.25;24.75;;;;;18.14;80.08;101128.69;4990759;28;45671;-71
2021/09/26 03:52:22;;;;;;;;;33.00;28.25;;;;;18.16;80.30;101127.63;4992218;28;45602;-71
2021/09/26 03:54:50;;;;;;;;;31.75;26.25;;;;;18.17;79.99;101123.19;4989080;28;45459;-71
2021/09/26 03:57:16;;;;;;;;;28.50;22.50;;;;;18.13;79.77;101108.38;4991648;28;47432;-71
2021/09/26 03:59:42;;;;;;;;;37.25;28.50;;;;;18.24;80.19;101116.47;4990178;28;45514;-71
2021/09/26 04:02:09;;;;;;;;;27.75;26.25;;;;;18.26;80.00;101119.88;4987607;28;46561;-71
2021/09/26 04:04:34;;;;;;;;;35.75;28.50;;;;;18.32;79.87;101116.78;5007324;28;45558;-71
2021/09/26 04:07:00;;;;;;;;;30.25;26.00;;;;;18.33;80.18;101120.31;4988563;28;45893;-71
2021/09/26 04:09:25;;;;;;;;;34.00;31.25;;;;;18.32;80.19;101118.59;4991130;28;45828;-71
2021/09/26 04:11:50;;;;;;;;;28.75;28.25;;;;;18.30;79.84;101112.53;5003017;28;45476;-71
2021/09/26 04:14:16;;;;;;;;;22.00;20.00;;;;;18.32;79.79;101103.47;4987157;28;45454;-71
2021/09/26 04:16:41;;;;;;;;;32.25;24.00;;;;;18.20;80.16;101083.91;4991099;28;55244;-71
2021/09/26 04:19:06;;;;;;;;;26.25;24.75;;;;;18.29;80.45;101100.19;4989074;28;58831;-71
2021/09/26 04:21:32;;;;;;;;;25.00;25.00;;;;;18.25;80.19;101104.88;4983234;28;45347;-71
2021/09/26 04:23:57;;;;;;;;;25.25;20.25;;;;;18.23;80.09;101098.81;4989845;28;45457;-71
2021/09/26 04:26:23;;;;;;;;;21.25;20.75;;;;;18.19;80.43;101094.66;4990274;28;46024;-71
2021/09/26 04:28:48;;;;;;;;;26.00;20.75;;;;;18.17;80.43;101101.91;4990661;28;45439;-71
2021/09/26 04:31:14;;;;;;;;;22.50;19.75;;;;;18.14;80.10;101099.44;4991861;28;45369;-71
2021/09/26 04:33:40;;;;;;;;;21.00;17.50;;;;;18.12;80.34;101101.38;4987175;28;45369;-71
2021/09/26 04:36:05;;;;;;;;;23.25;19.25;;;;;18.11;80.79;101103.16;4991239;28;52993;-71
2021/09/26 04:38:31;;;;;;;;;24.75;22.25;;;;;18.10;80.55;101098.78;4979177;28;45557;-71
2021/09/26 04:40:58;;;;;;;;;18.25;16.75;;;;;18.08;80.75;101102.53;4981262;28;45628;-71
2021/09/26 04:43:23;;;;;;;;;22.00;19.25;;;;;18.05;80.97;101089.41;4989466;28;45451;-71
2021/09/26 04:45:48;;;;;;;;;19.50;18.75;;;;;18.05;80.59;101092.09;4990883;28;45884;-71
2021/09/26 04:48:14;;;;;;;;;17.75;16.50;;;;;18.04;81.01;101085.06;4983887;28;45451;-71
2021/09/26 04:50:39;;;;;;;;;15.50;14.50;;;;;17.99;81.16;101077.41;4988669;28;45918;-71
2021/09/26 04:53:05;;;;;;;;;22.50;21.50;;;;;18.01;80.83;101088.81;4991171;28;45285;-71
2021/09/26 04:55:30;;;;;;;;;17.75;17.75;;;;;17.98;81.25;101091.66;4989639;28;46359;-71
2021/09/26 04:57:57;;;;;;;;;19.75;17.50;;;;;17.97;81.50;101103.25;4984833;28;45401;-71
2021/09/26 05:00:23;;;;;;;;;22.75;20.00;;;;;17.97;81.59;101108.56;4990764;28;45530;-71
2021/09/26 05:02:48;;;;;;;;;19.50;17.25;;;;;17.99;81.59;101111.97;4982663;28;45398;-70
2021/09/26 05:05:14;;;;;;;;;20.50;20.00;;;;;17.99;81.32;101104.00;4982728;28;46326;-71
2021/09/26 05:07:39;;;;;;;;;22.50;19.75;;;;;18.00;81.62;101109.19;4994563;28;46950;-71
2021/09/26 05:10:05;;;;;;;;;21.75;19.00;;;;;17.98;81.54;101099.63;4981270;28;45691;-72
2021/09/26 05:12:31;;;;;;;;;18.00;18.00;;;;;17.96;81.67;101110.38;4982214;28;45534;-71
2021/09/26 05:15:01;;;;;;;;;26.75;20.75;;;;;17.96;81.68;101117.50;4995869;28;47253;-71
2021/09/26 05:17:27;;;;;;;;;24.25;20.00;;;;;17.94;81.70;101116.75;4988096;28;45832;-71
2021/09/26 05:19:55;;;;;;;;;28.75;23.50;;;;;17.89;81.80;101111.75;4992637;28;45656;-70
2021/09/26 05:22:21;;;;;;;;;29.50;26.00;;;;;17.87;81.92;101118.13;4995852;28;45363;-71
2021/09/26 05:24:46;;;;;;;;;26.25;24.00;;;;;17.84;81.85;101129.81;4990377;28;46419;-71
2021/09/26 05:27:12;;;;;;;;;34.25;29.50;;;;;17.83;82.12;101143.22;4993589;28;45363;-71
2021/09/26 05:29:38;;;;;;;;;29.00;27.75;;;;;17.79;82.37;101141.72;4989097;28;45563;-71
2021/09/26 05:32:04;;;;;;;;;26.75;22.00;;;;;17.86;82.21;101146.53;4990607;28;45315;-71
2021/09/26 05:34:29;;;;;;;;;27.50;23.25;;;;;17.87;82.56;101140.25;4996191;28;46687;-71
2021/09/26 05:36:56;;;;;;;;;31.50;24.50;;;;;17.95;82.24;101147.69;4981487;28;45308;-71
2021/09/26 05:39:23;;;;;;;;;22.25;20.75;;;;;17.96;82.53;101155.59;4993696;28;45513;-71
2021/09/26 05:41:48;;;;;;;;;19.75;17.75;;;;;17.99;82.68;101150.06;4992809;28;45559;-71
2021/09/26 05:44:13;;;;;;;;;22.75;22.25;;;;;18.03;82.57;101153.38;4987737;28;46484;-71
2021/09/26 05:46:38;;;;;;;;;20.25;17.25;;;;;18.07;82.24;101162.84;4999573;28;54640;-71
2021/09/26 05:49:04;;;;;;;;;23.50;19.00;;;;;18.10;82.51;101159.97;4987650;28;45535;-71
2021/09/26 05:51:29;;;;;;;;;25.50;18.75;;;;;18.14;82.40;101166.78;4992720;28;46474;-71
2021/09/26 05:53:54;;;;;;;;;17.25;15.00;;;;;18.16;82.42;101169.34;4993530;28;46900;-71
2021/09/26 05:56:20;;;;;;;;;20.75;18.25;;;;;18.12;82.51;101165.19;4992745;28;45797;-71
2021/09/26 05:58:45;;;;;;;;;20.75;20.75;;;;;18.16;82.43;101186.13;4992564;28;45384;-71
2021/09/26 06:01:11;;;;;;;;;19.50;18.00;;;;;18.16;83.14;101182.63;4996218;28;45384;-71
2021/09/26 06:03:38;;;;;;;;;27.25;20.00;;;;;18.21;82.61;101186.69;4989587;28;46461;-71
2021/09/26 06:06:04;;;;;;;;;20.00;19.75;;;;;18.24;82.61;101190.97;4985418;28;45853;-71
2021/09/26 06:08:29;;;;;;;;;21.00;19.25;;;;;18.24;82.94;101190.97;4990613;28;45550;-71
2021/09/26 06:10:55;;;;;;;;;23.50;19.00;;;;;18.25;82.98;101184.69;4986099;28;45472;-72
2021/09/26 06:13:21;;;;;;;;;20.75;18.00;;;;;18.30;82.88;101185.22;4989628;28;45607;-71
2021/09/26 06:15:46;;;;;;;;;21.50;20.00;;;;;18.32;82.82;101188.63;4993986;28;45391;-71
2021/09/26 06:18:11;;;;;;;;;24.75;23.00;;;;;18.32;82.42;101193.94;4990850;28;46997;-71
2021/09/26 06:20:37;;;;;;;;;22.00;20.00;;;;;18.31;83.26;101194.91;4988769;28;45789;-70
2021/09/26 06:23:02;;;;;;;;;21.75;20.50;;;;;18.33;83.30;101203.66;4989527;28;45367;-71
2021/09/26 06:25:28;;;;;;;;;22.00;18.75;;;;;18.33;83.23;101201.00;4993791;28;45488;-72
2021/09/26 06:27:55;;;;;;;;;19.00;18.50;;;;;18.33;82.79;101203.66;4983955;28;45358;-71
2021/09/26 06:30:21;;;;;;;;;24.50;19.75;;;;;18.32;83.25;101195.75;4983594;28;45491;-71
2021/09/26 06:32:46;;;;;;;;;25.75;21.25;;;;;18.35;83.10;101188.41;4992279;28;45483;-71
2021/09/26 06:35:11;;;;;;;;;23.00;17.25;;;;;18.35;83.47;101191.06;5002497;28;45389;-71
2021/09/26 06:37:37;;;;;;;;;27.75;21.50;;;;;18.37;83.34;101201.59;4995849;28;45950;-71
2021/09/26 06:40:04;;;;;;;;;22.50;20.25;;;;;18.38;83.37;101198.03;4981559;28;45476;-71
2021/09/26 06:42:29;;;;;;;;;22.75;19.75;;;;;18.37;83.33;101207.78;4981969;28;46579;-71
2021/09/26 06:44:55;;;;;;;;;28.25;23.25;;;;;18.34;83.12;101200.03;4986483;28;45481;-71
2021/09/26 06:47:20;;;;;;;;;22.25;19.50;;;;;18.43;83.24;101209.19;4986018;28;45433;-71
2021/09/26 06:49:46;;;;;;;;;25.75;20.75;;;;;18.44;83.55;101205.56;4989274;28;45542;-71
2021/09/26 06:52:13;;;;;;;;;22.75;20.75;;;;;18.55;83.44;101216.34;4984025;28;46220;-71
2021/09/26 06:54:38;;;;;;;;;21.75;21.50;;;;;18.65;83.22;101230.72;4978010;28;45722;-71
2021/09/26 06:57:05;;;;;;;;;22.50;19.75;;;;;18.71;83.29;101225.00;4991107;28;45451;-71
2021/09/26 06:59:31;;;;;;;;;21.50;20.00;;;;;18.72;82.89;101212.53;4987487;28;45318;-71
2021/09/26 07:01:56;;;;;;;;;23.75;22.00;;;;;18.85;82.45;101217.88;4988733;28;45511;-71
2021/09/26 07:04:21;;;;;;;;;27.00;24.50;;;;;18.91;82.53;101212.97;4982769;28;57994;-71
2021/09/26 07:06:47;;;;;;;;;23.50;22.00;;;;;18.99;82.37;101226.56;4986960;28;45659;-70
2021/09/26 07:09:12;;;;;;;;;25.00;22.75;;;;;19.03;82.54;101227.22;4988609;28;45479;-71
2021/09/26 07:11:37;;;;;;;;;22.50;18.75;;;;;19.08;82.08;101226.91;4984432;28;45935;-72
2021/09/26 07:14:03;;;;;;;;;26.25;25.00;;;;;19.18;82.01;101236.78;4984592;28;45569;-71
2021/09/26 07:16:28;;;;;;;;;28.00;23.50;;;;;19.23;81.58;101239.13;4993424;28;47066;-71
2021/09/26 07:18:53;;;;;;;;;24.50;20.50;;;;;19.24;81.23;101239.00;4984192;28;45373;-71
2021/09/26 07:21:19;;;;;;;;;21.50;16.75;;;;;19.26;81.04;101247.78;4992669;28;45736;-71
2021/09/26 07:23:45;;;;;;;;;23.75;22.25;;;;;19.23;81.29;101245.31;4987581;28;45988;-71
2021/09/26 07:26:11;;;;;;;;;26.25;22.50;;;;;19.18;81.55;101249.25;4977000;28;45488;-71
2021/09/26 07:28:37;;;;;;;;;20.50;20.25;;;;;19.15;81.05;101252.13;4979818;28;45784;-72
2021/09/26 07:31:02;;;;;;;;;30.75;26.75;;;;;19.18;81.20;101254.59;4980660;28;47381;-71
2021/09/26 07:33:27;;;;;;;;;21.00;18.50;;;;;19.19;81.27;101240.31;4985641;28;45353;-71
2021/09/26 07:35:53;;;;;;;;;24.25;21.25;;;;;19.19;81.31;101232.31;4989406;28;45477;-71
2021/09/26 07:38:18;;;;;;;;;0.00;0.00;;;;;19.42;80.77;101260.84;4987112;28;45405;-71
2021/09/26 07:40:44;;;;;;;;;21.50;18.75;;;;;19.45;80.95;101271.28;4996078;28;46647;-71
2021/09/26 07:43:10;;;;;;;;;24.25;18.75;;;;;19.45;80.31;101281.94;4995119;28;45562;-71
2021/09/26 07:45:35;;;;;;;;;27.75;23.75;;;;;19.47;80.79;101276.47;4984376;28;45510;-71
2021/09/26 07:48:01;;;;;;;;;27.25;20.25;;;;;19.51;80.83;101275.31;4996466;28;45553;-71
2021/09/26 07:50:27;;;;;;;;;24.00;21.75;;;;;19.56;80.21;101271.34;4989108;28;46351;-71
2021/09/26 07:52:53;;;;;;;;;24.50;20.50;;;;;19.63;79.92;101278.94;4984065;28;47218;-71
2021/09/26 07:55:18;;;;;;;;;20.00;17.00;;;;;19.64;80.17;101283.31;4989647;28;45582;-71
2021/09/26 07:57:45;;;;;;;;;23.75;20.75;;;;;19.65;80.04;101285.03;4993632;28;45567;-71
2021/09/26 08:00:11;;;;;;;;;20.75;19.50;;;;;19.70;79.68;101286.41;4991038;28;45475;-71
2021/09/26 08:02:36;;;;;;;;;24.50;19.25;;;;;19.66;79.85;101289.38;4991118;28;45371;-71
2021/09/26 08:05:02;;;;;;;;;27.00;22.00;;;;;19.62;79.87;101299.41;4994802;28;45383;-71
2021/09/26 08:07:29;;;;;;;;;21.75;19.25;;;;;19.59;80.09;101298.78;4996480;28;45498;-71
2021/09/26 08:09:56;;;;;;;;;21.75;20.25;;;;;19.60;79.64;101308.50;4998525;28;48044;-71
2021/09/26 08:12:22;;;;;;;;;24.25;18.50;;;;;19.64;80.25;101302.00;4990971;28;45734;-70
2021/09/26 08:14:48;;;;;;;;;21.00;17.00;;;;;19.71;80.19;101293.44;4994886;28;45597;-71
2021/09/26 08:17:13;;;;;;;;;20.75;19.75;;;;;19.81;80.07;101305.13;4994184;28;45431;-70
2021/09/26 08:19:38;;;;;;;;;20.00;18.50;;;;;19.86;79.59;101306.63;4990350;28;46587;-71
2021/09/26 08:22:06;;;;;;;;;19.25;17.50;;;;;19.92;79.40;101304.34;4992789;28;45442;-71
2021/09/26 08:24:32;;;;;;;;;16.50;15.00;;;;;19.94;79.10;101299.78;4987680;28;45611;-71
2021/09/26 08:26:59;;;;;;;;;15.50;15.00;;;;;19.93;78.80;101299.84;4990570;28;45296;-71
2021/09/26 08:29:24;;;;;;;;;14.75;14.25;;;;;19.99;78.86;101302.06;4992358;28;45390;-71
2021/09/26 08:31:49;;;;;;;;;18.75;16.25;;;;;20.08;78.95;101298.72;4992005;28;46616;-71
2021/09/26 08:34:15;;;;;;;;;18.00;15.50;;;;;20.20;78.70;101307.63;4993474;28;45314;-71
2021/09/26 08:36:40;;;;;;;;;14.00;13.25;;;;;20.40;78.24;101300.81;4992754;28;45664;-71
2021/09/26 08:39:05;;;;;;;;;21.75;17.00;;;;;20.66;78.07;101298.88;4987128;28;45497;-71
2021/09/26 08:41:32;;;;;;;;;16.25;14.50;;;;;21.07;77.66;101306.38;4985622;28;45779;-71
2021/09/26 08:43:58;;;;;;;;;15.50;15.50;;;;;21.56;76.20;101305.19;4985152;28;49743;-70
2021/09/26 08:46:24;;;;;;;;;16.50;15.25;;;;;21.83;75.30;101307.47;4989260;28;45429;-71
2021/09/26 08:48:52;;;;;;;;;17.00;15.25;;;;;21.92;74.55;101308.53;4977057;28;46337;-71
2021/09/26 08:51:17;;;;;;;;;17.00;16.00;;;;;21.98;73.85;101314.25;4994857;28;45582;-71
2021/09/26 08:53:42;;;;;;;;;14.25;14.00;;;;;22.07;74.06;101313.47;4992198;28;45602;-71
2021/09/26 08:56:08;;;;;;;;;16.50;16.00;;;;;22.08;72.69;101315.22;4990076;28;45387;-72
2021/09/26 08:58:33;;;;;;;;;15.75;13.00;;;;;21.89;73.01;101309.66;4990890;28;46531;-71
2021/09/26 09:01:00;;;;;;;;;16.75;15.00;;;;;21.70;73.57;101312.09;4989557;28;55972;-70
2021/09/26 09:03:25;;;;;;;;;16.75;14.50;;;;;21.60;73.53;101307.50;4990155;28;45483;-71
2021/09/26 09:05:55;;;;;;;;;20.25;14.25;;;;;21.52;73.96;101303.75;4983618;28;45712;-70
2021/09/26 09:08:22;;;;;;;;;17.00;16.75;;;;;21.47;73.97;101305.94;4982924;28;46504;-70
2021/09/26 09:10:53;;;;;;;;;13.75;13.50;;;;;21.46;73.38;101321.13;4991648;28;45463;-70
2021/09/26 09:13:20;;;;;;;;;17.25;13.25;;;;;21.50;73.77;101317.22;4980222;28;45621;-70
2021/09/26 09:15:55;;;;;;;;;16.75;14.75;;;;;21.60;73.70;101314.66;4993513;28;45484;-70
2021/09/26 09:18:22;;;;;;;;;17.00;14.50;;;;;21.65;73.67;101320.50;4984269;28;46261;-71
2021/09/26 09:20:48;;;;;;;;;17.75;14.50;;;;;21.78;73.21;101323.06;4988696;28;45559;-70
2021/09/26 09:23:17;;;;;;;;;15.75;14.25;;;;;23.49;74.70;101305.03;4993491;28;45309;-71
2021/09/26 09:25:45;;;;;;;;;14.00;12.75;;;;;27.39;70.35;101303.16;4989039;28;45469;-70
2021/09/26 09:28:15;;;;;;;;;18.00;14.25;;;;;30.97;64.37;101308.78;4993244;28;45538;-70
2021/09/26 09:30:42;;;;;;;;;15.25;14.25;;;;;33.48;59.69;101298.81;4990223;28;45388;-70
2021/09/26 09:33:08;;;;;;;;;17.00;15.00;;;;;35.09;54.75;101302.44;4980993;28;45750;-71
2021/09/26 09:35:38;;;;;;;;;13.00;13.00;;;;;35.94;49.88;101311.38;4987178;28;45446;-71
2021/09/26 09:38:04;;;;;;;;;12.75;11.75;;;;;36.52;47.39;101316.69;4988894;28;46120;-71
2021/09/26 09:40:29;;;;;;;;;11.75;8.75;;;;;36.51;44.41;101327.88;4990238;28;45943;-71
2021/09/26 09:42:55;;;;;;;;;14.25;11.00;;;;;36.45;44.28;101326.03;4991625;28;45467;-71
2021/09/26 09:45:28;;;;;;;;;13.75;11.75;;;;;36.20;43.06;101321.31;4988476;28;45483;-71
2021/09/26 09:47:56;;;;;;;;;12.25;11.50;;;;;35.39;43.41;101318.31;4997912;28;45468;-70
2021/09/26 09:50:30;;;;;;;;;13.00;11.25;;;;;34.13;43.71;101321.06;4988150;28;45522;-70
2021/09/26 09:52:56;;;;;;;;;14.50;12.25;;;;;32.57;45.10;101315.13;4986623;28;48361;-70
2021/09/26 09:55:26;;;;;;;;;13.50;9.75;;;;;31.18;46.56;101319.72;4990244;28;45428;-71
2021/09/26 09:57:51;;;;;;;;;13.00;10.00;;;;;30.05;47.32;101318.78;4992196;28;46633;-70
2021/09/26 10:00:22;;;;;;;;;13.50;9.50;;;;;29.69;48.96;101322.03;4993302;28;45411;-70
2021/09/26 10:02:47;;;;;;;;;11.25;11.25;;;;;29.86;49.34;101303.81;4993672;28;45556;-72
2021/09/26 10:05:34;;;;;;;;;15.75;14.00;;;;;30.89;48.72;101325.13;4996691;28;45464;-71
2021/09/26 10:08:00;;;;;;;;;13.50;11.75;;;;;31.02;47.97;101319.06;4992055;28;46294;-71
2021/09/26 10:10:32;;;;;;;;;13.75;12.00;;;;;31.21;47.72;101329.34;4992743;28;45407;-71
2021/09/26 10:13:12;;;;;;;;;12.50;11.50;;;;;30.47;47.27;101322.94;4988143;28;45674;-71
2021/09/26 10:15:39;;;;;;;;;13.25;13.25;;;;;29.58;48.10;101325.13;5000288;28;45298;-72
2021/09/26 10:18:04;;;;;;;;;13.25;11.25;;;;;29.06;49.76;101317.50;4995398;28;46659;-70
2021/09/26 10:20:31;;;;;;;;;14.75;10.50;;;;;28.92;49.90;101310.03;4993179;28;45922;-72
2021/09/26 10:22:57;;;;;;;;;15.00;11.00;;;;;29.05;50.88;101318.50;4988062;28;45284;-69
2021/09/26 10:25:22;;;;;;;;;13.75;11.25;;;;;29.11;50.57;101317.81;4986323;28;45506;-69
2021/09/26 10:27:49;;;;;;;;;13.25;12.50;;;;;29.23;50.84;101319.13;4984042;28;46671;-69
2021/09/26 10:30:16;;;;;;;;;11.00;11.00;;;;;29.50;50.27;101317.88;4995911;28;45450;-69
2021/09/26 10:32:44;;;;;;;;;13.50;10.00;;;;;29.33;49.78;101308.94;4991568;28;45515;-69
2021/09/26 10:35:09;;;;;;;;;10.50;9.50;;;;;28.78;49.63;101308.91;4994964;28;45449;-70
2021/09/26 10:37:35;;;;;;;;;20.50;12.00;;;;;28.18;50.50;101311.88;4994789;28;45457;-70
2021/09/26 10:40:02;;;;;;;;;12.00;10.50;;;;;27.58;51.34;101324.53;4995723;28;45356;-69
2021/09/26 10:42:34;;;;;;;;;9.75;9.25;;;;;26.99;52.31;101314.53;4987449;28;45528;-69
2021/09/26 10:45:02;;;;;;;;;11.00;10.25;;;;;26.57;53.21;101317.94;4984816;28;45498;-71
2021/09/26 10:47:30;;;;;;;;;14.75;11.75;;;;;26.22;53.52;101327.72;4990391;28;45830;-72
2021/09/26 10:50:12;;;;;;;;;12.50;11.25;;;;;25.76;54.90;101324.19;4996060;28;45373;-71
2021/09/26 10:52:44;;;;;;;;;11.75;11.50;;;;;25.42;55.63;101323.91;4990975;28;45436;-71
2021/09/26 10:55:18;;;;;;;;;12.25;10.25;;;;;25.56;56.39;101317.19;4980867;28;45629;-71
2021/09/26 10:57:52;;;;;;;;;14.50;11.00;;;;;25.62;56.48;101315.72;4991998;28;45484;-71
2021/09/26 11:00:48;;;;;;;;;13.50;12.75;;;;;25.61;56.85;101312.19;4996337;28;45364;-71
2021/09/26 11:03:16;;;;;;;;;11.25;11.00;;;;;25.49;57.04;101311.56;4995152;28;45464;-71
2021/09/26 11:05:49;;;;;;;;;11.75;9.50;;;;;25.88;56.78;101311.34;4990993;28;45499;-70
2021/09/26 11:08:41;;;;;;;;;11.00;9.75;;;;;26.39;56.07;101303.63;4989104;28;46128;-71
2021/09/26 11:11:06;;;;;;;;;9.25;9.25;;;;;26.42;54.83;101298.81;4986363;28;45421;-71